Time;durP1;ratioP1;P1;durP2;ratioP2;P2;SDS_P1;SDS_P2;PMS_P1;PMS_P2;Temp;Humidity;BMP_temperature;BMP_pressure;BME280_temperature;BME280_humidity;BME280_pressure;Samples;Min_cycle;Max_cycle;Signal;HPM_P1;HPM_P2
2020/01/25 21:58:46;;;;;;;33.3;24.6;;;;;;;4.22;89.04199;962.6077;;;;
2020/01/25 22:01:38;;;;;;;33.6;26.2;;;;;;;4.02;89.68164;962.5789;;;;
2020/01/25 22:04:03;;;;;;;35.3;26.5;;;;;;;3.83;90.99219;962.4908;;;;
2020/01/25 22:06:29;;;;;;;38.3;25.9;;;;;;;3.75;91.3916;962.5109;;;;
2020/01/25 22:08:54;;;;;;;39.4;26.8;;;;;;;3.74;91.43555;962.5195;;;;
2020/01/25 22:12:28;;;;;;;33.1;26.2;;;;;;;3.8;90.99512;962.4949;;;;
2020/01/25 22:14:54;;;;;;;33.5;25.5;;;;;;;3.9;90.54102;962.4892;;;;
2020/01/25 22:17:19;;;;;;;37.6;26.6;;;;;;;3.88;90.57031;962.4261;;;;
2020/01/25 22:19:50;;;;;;;36.9;26.9;;;;;;;3.78;90.77637;962.4398;;;;
2020/01/25 22:22:09;;;;;;;36.3;25.7;;;;;;;3.75;91.07617;962.4634;;;;
2020/01/25 22:24:34;;;;;;;36.2;26.3;;;;;;;3.81;90.80273;962.5145;;;;
2020/01/25 22:26:59;;;;;;;36.2;25.2;;;;;;;3.89;90.65234;962.6058;;;;
2020/01/25 22:29:24;;;;;;;36.3;26.8;;;;;;;3.83;91.24121;962.6214;;;;
2020/01/25 22:31:49;;;;;;;34.2;26.2;;;;;;;3.85;91.06152;962.6068;;;;
2020/01/25 22:34:14;;;;;;;35.1;25.9;;;;;;;3.93;90.3291;962.6259;;;;
2020/01/25 22:36:39;;;;;;;34.6;26;;;;;;;3.87;90.23828;962.6448;;;;
2020/01/25 22:39:04;;;;;;;33.2;26;;;;;;;3.82;90.42188;962.6304;;;;
2020/01/25 22:41:29;;;;;;;34.5;25.9;;;;;;;3.7;91.03125;962.5527;;;;
2020/01/25 22:43:54;;;;;;;32.6;25.6;;;;;;;3.72;90.80859;962.5264;;;;
2020/01/25 22:46:20;;;;;;;35.3;25.7;;;;;;;3.74;90.57422;962.5556;;;;
2020/01/25 22:48:45;;;;;;;35.4;26.1;;;;;;;3.69;90.80078;962.5491;;;;
2020/01/25 22:51:10;;;;;;;37.6;27.5;;;;;;;3.43;92.12598;962.5162;;;;
2020/01/25 22:53:35;;;;;;;37.7;27.4;;;;;;;3.51;92.15527;962.4722;;;;
2020/01/25 22:56:00;;;;;;;36.1;27.2;;;;;;;3.5;92.16406;962.3695;;;;
2020/01/25 22:58:25;;;;;;;31.3;26.3;;;;;;;3.57;92.41797;962.3747;;;;
2020/01/25 23:00:51;;;;;;;35.1;25.7;;;;;;;3.53;92.89453;962.3094;;;;
2020/01/25 23:03:15;;;;;;;36;25.1;;;;;;;3.63;92.65625;962.3218;;;;
2020/01/25 23:05:40;;;;;;;33.8;24.4;;;;;;;3.66;92.5957;962.3986;;;;
2020/01/25 23:08:05;;;;;;;36.4;25.9;;;;;;;3.78;91.72559;962.3575;;;;
2020/01/25 23:10:30;;;;;;;32.8;24.7;;;;;;;3.79;91.6377;962.3645;;;;
2020/01/25 23:12:56;;;;;;;36.3;26.3;;;;;;;3.45;92.99023;962.375;;;;
2020/01/25 23:15:21;;;;;;;35.4;26.9;;;;;;;3.08;94.64063;962.4258;;;;
2020/01/25 23:18:20;;;;;;;35.7;26.2;;;;;;;3.15;95.05469;962.4564;;;;
2020/01/25 23:20:22;;;;;;;33.5;25.3;;;;;;;3.24;94.34863;962.4747;;;;
2020/01/25 23:22:38;;;;;;;32.6;25;;;;;;;3.34;93.65723;962.4805;;;;
2020/01/25 23:25:01;;;;;;;31.4;24.5;;;;;;;3.24;94.08789;962.4601;;;;
2020/01/25 23:27:26;;;;;;;33.4;24.6;;;;;;;3.31;93.69629;962.5441;;;;
2020/01/25 23:29:52;;;;;;;37.5;25.9;;;;;;;3.22;94.36523;962.5491;;;;
2020/01/25 23:32:17;;;;;;;37;27.8;;;;;;;3.17;94.44727;962.6105;;;;
2020/01/25 23:34:42;;;;;;;38.8;28.6;;;;;;;3.18;93.99707;962.5916;;;;
2020/01/25 23:37:07;;;;;;;39.2;28.8;;;;;;;2.94;95.02637;962.5458;;;;
2020/01/25 23:39:32;;;;;;;37.7;28.6;;;;;;;3.02;94.91113;962.4924;;;;
2020/01/25 23:41:57;;;;;;;38.1;27.8;;;;;;;3.14;94.09863;962.4916;;;;
2020/01/25 23:44:22;;;;;;;39.5;29.3;;;;;;;3.13;94.04199;962.481;;;;
2020/01/25 23:46:47;;;;;;;34.3;28.2;;;;;;;3.14;94.02051;962.4785;;;;
2020/01/25 23:49:13;;;;;;;37.9;27.9;;;;;;;3.22;93.57324;962.4805;;;;
2020/01/25 23:51:38;;;;;;;39.7;28.5;;;;;;;3.11;93.84375;962.4677;;;;
2020/01/25 23:54:03;;;;;;;38.7;28.3;;;;;;;3.11;93.76465;962.4255;;;;
2020/01/25 23:56:28;;;;;;;37.2;27.9;;;;;;;2.97;94.2207;962.4445;;;;
2020/01/25 23:58:53;;;;;;;38.6;28.5;;;;;;;3.05;93.82031;962.4468;;;;
